Time;durP1;ratioP1;P1;durP2;ratioP2;P2;SDS_P1;SDS_P2;PMS_P1;PMS_P2;Temp;Humidity;BMP_temperature;BMP_pressure;BME280_temperature;BME280_humidity;BME280_pressure;Samples;Min_cycle;Max_cycle;Signal;HPM_P1;HPM_P2
2020/12/25 00:01:35;;;;;;;28.80;18.50;;;;;;;7.99;69.27;94391.78;4188165;28;20048;-77
2020/12/25 00:03:36;;;;;;;30.63;19.23;;;;;;;8.02;69.20;94381.03;4194452;28;20052;-78
2020/12/25 00:05:37;;;;;;;30.27;18.65;;;;;;;8.04;69.23;94388.72;4193372;28;20052;-78
2020/12/25 00:07:39;;;;;;;30.38;18.98;;;;;;;8.02;69.04;94378.41;4193912;28;20400;-79
2020/12/25 00:09:40;;;;;;;29.55;18.98;;;;;;;8.00;68.94;94380.34;4193076;28;20472;-78
2020/12/25 00:11:43;;;;;;;29.98;19.08;;;;;;;7.83;69.40;94389.00;4192478;28;20058;-78
2020/12/25 00:13:46;;;;;;;26.67;18.80;;;;;;;7.75;69.79;94395.81;4186692;28;20045;-77
2020/12/25 00:15:47;;;;;;;28.10;19.23;;;;;;;7.78;69.82;94385.06;4181367;28;20048;-77
2020/12/25 00:17:49;;;;;;;28.95;18.45;;;;;;;7.79;69.87;94385.91;4167461;28;20049;-77
2020/12/25 00:19:52;;;;;;;29.40;18.23;;;;;;;7.83;69.71;94395.06;4192312;28;20055;-76
2020/12/25 00:21:54;;;;;;;30.20;18.88;;;;;;;7.89;69.85;94388.44;4197557;28;20059;-78
2020/12/25 00:23:55;;;;;;;147.10;36.28;;;;;;;7.86;69.41;94381.72;4199520;28;20565;-77
2020/12/25 00:25:56;;;;;;;27.50;17.95;;;;;;;7.65;70.42;94392.44;4202348;28;20060;-77
2020/12/25 00:27:57;;;;;;;34.90;20.25;;;;;;;7.69;69.89;94396.41;4162119;28;20050;-77
2020/12/25 00:29:58;;;;;;;33.80;19.73;;;;;;;7.75;70.40;94410.66;4171108;28;20110;-77
2020/12/25 00:32:00;;;;;;;30.92;19.30;;;;;;;7.79;69.89;94428.44;4193332;28;20060;-76
2020/12/25 00:34:06;;;;;;;27.85;19.40;;;;;;;7.82;69.51;94421.28;4181075;28;20048;-75
2020/12/25 00:36:07;;;;;;;28.52;18.67;;;;;;;7.68;70.43;94400.00;4200604;28;20052;-78
2020/12/25 00:38:08;;;;;;;28.45;19.60;;;;;;;7.65;70.70;94399.47;4198350;28;20357;-78
2020/12/25 00:40:10;;;;;;;30.10;19.15;;;;;;;7.69;70.58;94406.81;4189746;28;20093;-78
2020/12/25 00:42:11;;;;;;;31.90;19.23;;;;;;;7.77;69.88;94400.88;4193309;28;20071;-78
2020/12/25 00:44:12;;;;;;;33.58;18.63;;;;;;;7.80;70.27;94401.38;4171431;28;20117;-77
2020/12/25 00:46:14;;;;;;;31.95;19.27;;;;;;;7.82;70.09;94403.84;4192926;28;20044;-79
2020/12/25 00:48:15;;;;;;;26.98;18.05;;;;;;;7.85;69.31;94405.34;4177644;28;20648;-77
2020/12/25 00:50:16;;;;;;;27.20;18.23;;;;;;;7.90;69.34;94397.91;4193866;28;20127;-78
2020/12/25 00:52:17;;;;;;;28.92;18.60;;;;;;;7.90;69.22;94403.94;4179579;28;20045;-78
2020/12/25 00:54:19;;;;;;;30.48;18.80;;;;;;;7.88;69.12;94397.22;4192079;28;20054;-69
2020/12/25 00:56:20;;;;;;;30.10;19.60;;;;;;;7.80;69.73;94403.19;4193467;28;20040;-68
2020/12/25 00:58:21;;;;;;;28.13;18.67;;;;;;;7.72;69.62;94405.72;4190401;28;20625;-69
2020/12/25 01:00:22;;;;;;;30.92;18.55;;;;;;;7.73;69.31;94404.75;4174703;28;20045;-69
2020/12/25 01:02:28;;;;;;;26.35;17.80;;;;;;;7.77;69.99;94411.31;4191587;28;20430;-69
2020/12/25 01:04:29;;;;;;;27.08;18.10;;;;;;;7.78;69.72;94412.94;4191935;28;20131;-68
2020/12/25 01:06:30;;;;;;;30.80;17.73;;;;;;;7.74;69.60;94407.22;4192594;28;20107;-68
2020/12/25 01:08:31;;;;;;;25.80;17.83;;;;;;;7.76;69.42;94407.06;4173343;28;20143;-69
2020/12/25 01:10:33;;;;;;;26.52;17.92;;;;;;;7.70;69.92;94392.84;4192491;28;20048;-69
2020/12/25 01:12:34;;;;;;;26.55;18.00;;;;;;;7.69;69.38;94408.63;4172693;28;20104;-69
2020/12/25 01:14:35;;;;;;;24.52;17.02;;;;;;;7.73;69.68;94404.75;4173585;28;20622;-69
2020/12/25 01:16:36;;;;;;;26.42;18.00;;;;;;;7.63;69.57;94397.00;4191961;28;20064;-70
2020/12/25 01:18:38;;;;;;;25.70;17.00;;;;;;;7.62;69.51;94394.56;4174283;28;20056;-70
2020/12/25 01:20:39;;;;;;;26.48;17.77;;;;;;;7.65;69.20;94389.03;4192226;28;20052;-70
2020/12/25 01:22:40;;;;;;;28.02;18.48;;;;;;;7.62;69.69;94377.13;4192182;28;20407;-70
2020/12/25 01:24:41;;;;;;;26.80;17.40;;;;;;;7.65;69.88;94379.41;4191636;28;20682;-70
2020/12/25 01:26:43;;;;;;;27.38;17.52;;;;;;;7.54;70.03;94372.63;4190265;28;20364;-69
2020/12/25 01:28:45;;;;;;;29.92;18.67;;;;;;;7.46;70.20;94376.94;4173881;28;20044;-69
2020/12/25 01:30:46;;;;;;;22.40;16.52;;;;;;;7.49;69.92;94384.50;4191464;28;20060;-69
2020/12/25 01:32:48;;;;;;;27.88;17.60;;;;;;;7.54;69.73;94372.63;4173857;28;20056;-70
2020/12/25 01:34:50;;;;;;;23.70;16.02;;;;;;;7.33;70.44;94374.69;4157598;28;20049;-68
2020/12/25 01:36:51;;;;;;;27.25;16.17;;;;;;;7.19;70.65;94370.81;4190290;28;20444;-69
2020/12/25 01:38:52;;;;;;;28.20;18.15;;;;;;;7.17;70.78;94381.38;4192113;28;20050;-70
2020/12/25 01:40:53;;;;;;;27.73;17.48;;;;;;;7.28;71.01;94363.91;4192315;28;20170;-69
2020/12/25 01:42:57;;;;;;;26.73;16.90;;;;;;;7.40;70.79;94365.34;4173093;28;20093;-69
2020/12/25 01:44:59;;;;;;;27.80;17.55;;;;;;;7.52;70.54;94361.53;4172835;28;20068;-68
2020/12/25 01:47:01;;;;;;;24.95;17.25;;;;;;;7.60;70.27;94368.63;4174180;28;20071;-69
2020/12/25 01:49:02;;;;;;;28.40;17.20;;;;;;;7.66;69.91;94375.00;4189482;28;20041;-69
2020/12/25 01:51:04;;;;;;;27.20;17.30;;;;;;;7.64;69.80;94356.13;4191975;28;20534;-70
2020/12/25 01:53:08;;;;;;;27.48;17.63;;;;;;;7.69;69.89;94365.13;4188178;28;20399;-69
2020/12/25 01:55:09;;;;;;;23.52;16.15;;;;;;;7.75;69.72;94367.13;4197481;28;20360;-69
2020/12/25 01:57:12;;;;;;;25.73;16.10;;;;;;;7.65;69.55;94369.00;4173318;28;20424;-68
2020/12/25 01:59:13;;;;;;;23.92;15.63;;;;;;;7.62;69.76;94368.47;4180549;28;20404;-70
2020/12/25 02:01:14;;;;;;;25.80;17.83;;;;;;;7.57;69.70;94368.91;4172596;28;20139;-69
2020/12/25 02:03:16;;;;;;;29.15;17.08;;;;;;;7.57;69.41;94366.28;4192358;28;20049;-69
2020/12/25 02:05:17;;;;;;;21.40;16.70;;;;;;;7.62;69.39;94361.47;4190952;28;20047;-68
2020/12/25 02:07:18;;;;;;;26.15;17.77;;;;;;;7.63;69.49;94359.69;4191869;28;20128;-68
2020/12/25 02:09:20;;;;;;;27.73;17.98;;;;;;;7.59;69.77;94356.53;4173153;28;20049;-69
2020/12/25 02:11:21;;;;;;;27.42;17.55;;;;;;;7.58;69.49;94366.16;4172700;28;20061;-69
2020/12/25 02:13:22;;;;;;;31.05;18.85;;;;;;;7.22;70.45;94362.69;4173107;28;20077;-69
2020/12/25 02:15:23;;;;;;;35.65;20.98;;;;;;;7.18;70.64;94366.56;4173028;28;20135;-69
2020/12/25 02:17:25;;;;;;;32.42;22.17;;;;;;;6.64;73.13;94363.81;4172431;28;20551;-70
2020/12/25 02:19:26;;;;;;;31.10;20.80;;;;;;;6.73;72.91;94354.31;4195747;28;20487;-68
2020/12/25 02:21:27;;;;;;;31.65;19.60;;;;;;;6.89;72.14;94359.75;4175502;28;20049;-69
2020/12/25 02:23:29;;;;;;;28.75;20.13;;;;;;;6.48;73.66;94359.22;4192825;28;20139;-70
2020/12/25 02:25:30;;;;;;;36.70;21.90;;;;;;;6.52;73.44;94364.97;4195121;28;20423;-69
2020/12/25 02:27:31;;;;;;;33.65;21.15;;;;;;;6.55;73.61;94351.66;4168353;28;20053;-69
2020/12/25 02:29:32;;;;;;;31.30;21.58;;;;;;;6.72;73.31;94345.69;4194344;28;20052;-69
2020/12/25 02:31:46;;;;;;;30.98;20.63;;;;;;;6.84;72.44;94354.16;4176411;28;20130;-69
2020/12/25 02:33:47;;;;;;;32.33;21.70;;;;;;;6.86;72.52;94359.19;4170116;28;20240;-69
2020/12/25 02:35:48;;;;;;;31.13;20.17;;;;;;;6.96;72.04;94365.19;4178857;28;20132;-68
2020/12/25 02:37:50;;;;;;;36.45;22.77;;;;;;;6.97;71.78;94365.03;4179372;28;20134;-69
2020/12/25 02:39:51;;;;;;;33.50;21.52;;;;;;;7.03;71.73;94358.41;4193126;28;20499;-68
2020/12/25 02:41:52;;;;;;;33.65;20.75;;;;;;;7.10;71.88;94361.28;4190289;28;20165;-69
2020/12/25 02:43:54;;;;;;;37.90;21.05;;;;;;;7.17;71.18;94355.34;4174366;28;20060;-70
2020/12/25 02:45:55;;;;;;;30.33;19.98;;;;;;;7.26;70.97;94352.81;4177416;28;20051;-68
2020/12/25 02:47:56;;;;;;;31.27;19.90;;;;;;;7.35;70.68;94333.69;4176963;28;20134;-69
2020/12/25 02:49:58;;;;;;;29.35;19.63;;;;;;;7.36;70.00;94338.75;4175411;28;20570;-69
2020/12/25 02:51:59;;;;;;;33.40;20.13;;;;;;;7.33;70.19;94339.03;4174683;28;20148;-70
2020/12/25 02:54:00;;;;;;;31.00;19.83;;;;;;;7.34;70.59;94332.06;4176782;28;20057;-70
2020/12/25 02:56:02;;;;;;;29.73;19.83;;;;;;;7.36;70.89;94330.13;4182608;28;20048;-69
2020/12/25 02:58:03;;;;;;;31.55;21.63;;;;;;;7.39;70.42;94325.41;4185798;28;20496;-70
2020/12/25 03:00:04;;;;;;;31.83;20.90;;;;;;;7.39;69.73;94322.81;4176582;28;20063;-68
2020/12/25 03:02:06;;;;;;;31.95;21.27;;;;;;;7.39;69.66;94320.19;4178331;28;20129;-68
2020/12/25 03:04:07;;;;;;;31.98;20.23;;;;;;;7.39;69.84;94324.59;4176915;28;20496;-69
2020/12/25 03:06:09;;;;;;;31.45;19.63;;;;;;;7.36;70.33;94307.47;4176787;28;20055;-68
2020/12/25 03:08:11;;;;;;;29.98;20.52;;;;;;;7.33;69.90;94315.59;4176584;28;20064;-69
2020/12/25 03:10:12;;;;;;;30.55;21.02;;;;;;;7.30;70.45;94318.50;4181076;28;20053;-69
2020/12/25 03:12:13;;;;;;;31.02;21.00;;;;;;;7.27;70.41;94313.59;4187714;28;20053;-69
2020/12/25 03:14:14;;;;;;;30.23;20.83;;;;;;;7.28;70.23;94317.00;4184437;28;20048;-68
2020/12/25 03:16:15;;;;;;;33.72;20.27;;;;;;;7.21;70.53;94314.19;4181113;28;20142;-69
2020/12/25 03:18:18;;;;;;;33.80;21.50;;;;;;;7.21;70.25;94313.38;4178744;28;20618;-69
2020/12/25 03:20:19;;;;;;;31.10;20.50;;;;;;;7.20;70.45;94315.13;4177470;28;20045;-71
2020/12/25 03:22:20;;;;;;;32.63;20.80;;;;;;;6.70;71.98;94316.38;4177606;28;20178;-70
2020/12/25 03:24:21;;;;;;;33.90;21.45;;;;;;;6.69;71.93;94303.50;4177276;28;20787;-69
2020/12/25 03:26:23;;;;;;;36.75;22.35;;;;;;;6.75;72.21;94310.75;4175888;28;20056;-69
2020/12/25 03:28:24;;;;;;;34.53;21.13;;;;;;;6.85;72.06;94297.69;4176608;28;20048;-68
2020/12/25 03:30:25;;;;;;;32.33;20.30;;;;;;;6.87;71.89;94290.56;4173645;28;20056;-69
2020/12/25 03:32:26;;;;;;;30.23;20.73;;;;;;;6.91;71.53;94308.34;4176234;28;20049;-68
2020/12/25 03:34:28;;;;;;;32.40;21.42;;;;;;;6.97;71.56;94312.97;4176403;28;20500;-68
2020/12/25 03:36:30;;;;;;;34.53;21.48;;;;;;;7.03;71.58;94310.72;4176442;28;20056;-69
2020/12/25 03:38:32;;;;;;;31.00;21.67;;;;;;;7.08;71.30;94304.13;4172147;28;20300;-69
2020/12/25 03:40:34;;;;;;;30.70;20.55;;;;;;;7.11;71.27;94297.78;4167163;28;20136;-68
2020/12/25 03:42:35;;;;;;;28.55;18.30;;;;;;;7.13;71.06;94299.28;4177484;28;20068;-79
2020/12/25 03:44:36;;;;;;;31.25;19.35;;;;;;;7.13;70.66;94301.06;4180527;28;20053;-69
2020/12/25 03:46:38;;;;;;;30.88;19.73;;;;;;;7.11;70.83;94297.78;4177634;28;20065;-68
2020/12/25 03:48:39;;;;;;;32.55;19.50;;;;;;;7.01;71.19;94299.63;4184274;28;20532;-69
2020/12/25 03:50:41;;;;;;;30.85;18.92;;;;;;;6.99;71.64;94299.81;4176201;28;20059;-69
2020/12/25 03:52:43;;;;;;;27.73;18.63;;;;;;;6.96;70.95;94300.88;4175684;28;20099;-69
2020/12/25 03:54:44;;;;;;;26.35;17.95;;;;;;;6.82;71.77;94288.41;4176650;28;20230;-67
2020/12/25 03:56:45;;;;;;;30.10;18.90;;;;;;;6.83;72.11;94290.00;4175957;28;20147;-69
2020/12/25 03:58:47;;;;;;;29.48;18.42;;;;;;;6.91;71.24;94291.91;4174802;28;20461;-69
2020/12/25 04:00:48;;;;;;;23.48;16.98;;;;;;;6.95;71.16;94301.88;4175701;28;20056;-68
2020/12/25 04:02:49;;;;;;;28.20;17.58;;;;;;;6.87;71.60;94300.97;4176185;28;20049;-68
2020/12/25 04:04:51;;;;;;;27.42;18.35;;;;;;;6.80;71.87;94292.94;4177020;28;20057;-68
2020/12/25 04:06:52;;;;;;;30.83;19.83;;;;;;;6.74;72.03;94298.72;4176203;28;20124;-68
2020/12/25 04:08:53;;;;;;;32.28;19.48;;;;;;;6.76;71.76;94297.59;4175688;28;20057;-68
2020/12/25 04:10:54;;;;;;;28.05;19.02;;;;;;;6.82;71.33;94295.34;4176250;28;20178;-70
2020/12/25 04:12:56;;;;;;;35.08;20.20;;;;;;;6.89;71.52;94291.22;4174260;28;20048;-69
2020/12/25 04:14:57;;;;;;;32.13;19.98;;;;;;;6.92;71.07;94296.94;4177306;28;20053;-69
2020/12/25 04:17:16;;;;;;;28.75;19.08;;;;;;;6.90;71.30;94301.47;4179045;28;20385;-68
2020/12/25 04:19:17;;;;;;;29.10;17.88;;;;;;;6.93;71.36;94292.56;4177090;28;20057;-69
2020/12/25 04:21:19;;;;;;;29.35;19.50;;;;;;;6.76;71.65;94299.38;4174362;28;20047;-68
2020/12/25 04:23:20;;;;;;;30.30;19.10;;;;;;;6.78;72.02;94296.66;4176848;28;20051;-69
2020/12/25 04:25:21;;;;;;;28.98;18.83;;;;;;;6.75;72.02;94308.13;4176973;28;20527;-68
2020/12/25 04:27:22;;;;;;;28.75;20.23;;;;;;;6.76;71.65;94307.19;4174653;28;20052;-68
2020/12/25 04:29:23;;;;;;;29.13;19.60;;;;;;;6.77;71.63;94316.63;4175990;28;20061;-69
2020/12/25 04:31:26;;;;;;;25.35;17.42;;;;;;;6.77;71.95;94311.41;4173604;28;20044;-69
2020/12/25 04:33:27;;;;;;;26.58;17.13;;;;;;;6.82;71.52;94309.22;4184946;28;20088;-68
2020/12/25 04:35:28;;;;;;;26.83;18.23;;;;;;;6.82;71.67;94314.44;4175183;28;20055;-69
2020/12/25 04:37:30;;;;;;;24.60;17.70;;;;;;;6.84;71.18;94307.28;4192399;28;20063;-68
2020/12/25 04:39:31;;;;;;;25.33;16.98;;;;;;;6.72;71.54;94313.66;4192713;28;20137;-69
2020/12/25 04:41:33;;;;;;;25.58;17.85;;;;;;;6.75;71.63;94315.94;4190550;28;20056;-68
2020/12/25 04:43:35;;;;;;;28.42;17.40;;;;;;;6.79;71.70;94306.06;4191745;28;20055;-69
2020/12/25 04:45:37;;;;;;;27.33;17.20;;;;;;;6.73;71.79;94323.09;4174568;28;20064;-69
2020/12/25 04:47:38;;;;;;;27.48;17.70;;;;;;;6.78;71.80;94315.69;4192369;28;20440;-68
2020/12/25 04:49:40;;;;;;;27.00;17.05;;;;;;;6.85;71.28;94318.53;4174957;28;20048;-69
2020/12/25 04:51:41;;;;;;;28.00;17.73;;;;;;;6.76;71.57;94326.22;4190264;28;20048;-70
2020/12/25 04:53:43;;;;;;;27.80;17.33;;;;;;;6.78;71.46;94331.31;4176949;28;20378;-70
2020/12/25 04:55:44;;;;;;;29.40;19.92;;;;;;;6.51;72.19;94311.28;4152926;28;20059;-69
2020/12/25 04:57:46;;;;;;;30.85;19.27;;;;;;;6.56;72.13;94312.50;4188006;28;20079;-70
2020/12/25 04:59:47;;;;;;;31.65;19.98;;;;;;;6.32;73.32;94297.41;4191145;28;20064;-68
2020/12/25 05:01:50;;;;;;;30.40;19.83;;;;;;;6.38;73.09;94311.59;4192909;28;20450;-71
2020/12/25 05:03:51;;;;;;;29.60;19.75;;;;;;;6.22;73.53;94317.41;4169690;28;20546;-70
2020/12/25 05:05:52;;;;;;;32.08;20.70;;;;;;;6.28;73.38;94323.81;4193079;28;20423;-69
2020/12/25 05:07:55;;;;;;;28.75;19.50;;;;;;;6.36;73.54;94309.13;4174419;28;20117;-70
2020/12/25 05:09:57;;;;;;;30.33;19.73;;;;;;;6.25;73.55;94322.31;4194103;28;20048;-68
2020/12/25 05:11:59;;;;;;;29.10;20.73;;;;;;;6.36;73.46;94323.94;4187077;28;20044;-68
2020/12/25 05:14:04;;;;;;;28.08;19.42;;;;;;;6.41;73.02;94315.69;4173951;28;20059;-68
2020/12/25 05:16:05;;;;;;;30.40;19.38;;;;;;;6.49;72.86;94329.63;4186882;28;20133;-70
2020/12/25 05:18:07;;;;;;;26.90;18.90;;;;;;;6.57;72.55;94323.72;4175613;28;20056;-69
2020/12/25 05:20:09;;;;;;;30.08;19.30;;;;;;;6.65;71.83;94330.81;4174272;28;20129;-68
2020/12/25 05:22:10;;;;;;;27.48;17.85;;;;;;;6.68;71.97;94338.34;4161836;28;20049;-69
2020/12/25 05:24:11;;;;;;;26.52;17.13;;;;;;;6.71;72.12;94322.41;4192591;28;20044;-69
2020/12/25 05:26:14;;;;;;;30.23;18.00;;;;;;;6.73;71.81;94326.53;4173428;28;20095;-70
2020/12/25 05:28:15;;;;;;;28.77;17.75;;;;;;;6.77;71.88;94319.22;4157050;28;20061;-68
2020/12/25 05:30:16;;;;;;;22.75;16.58;;;;;;;6.80;71.59;94316.34;4189836;28;20455;-69
2020/12/25 05:32:18;;;;;;;22.95;16.13;;;;;;;6.78;71.36;94318.28;4192582;28;20132;-67
2020/12/25 05:34:21;;;;;;;25.45;16.35;;;;;;;6.83;71.15;94305.63;4191751;28;20043;-68
2020/12/25 05:36:39;;;;;;;24.15;16.30;;;;;;;6.78;71.26;94312.25;4175902;28;20049;-69
2020/12/25 05:38:47;;;;;;;22.80;14.60;;;;;;;6.70;70.86;94305.16;4174208;28;20483;-68
2020/12/25 05:40:49;;;;;;;23.52;14.52;;;;;;;6.66;71.45;94293.41;4192642;28;20492;-69
2020/12/25 05:42:51;;;;;;;23.08;15.40;;;;;;;6.68;71.63;94304.50;4191758;28;20347;-70
2020/12/25 05:44:52;;;;;;;22.85;15.55;;;;;;;6.69;71.40;94309.56;4198154;28;20400;-72
2020/12/25 05:46:57;;;;;;;20.70;13.82;;;;;;;6.74;71.25;94314.31;4186220;28;20067;-69
2020/12/25 05:48:58;;;;;;;22.63;13.57;;;;;;;6.70;71.04;94315.56;4192080;28;20072;-69
2020/12/25 05:51:07;;;;;;;19.25;14.23;;;;;;;6.70;71.07;94321.59;4202826;28;20044;-68
2020/12/25 05:53:08;;;;;;;19.50;12.88;;;;;;;6.71;71.09;94328.47;4173715;28;20045;-70
2020/12/25 05:55:10;;;;;;;20.17;13.45;;;;;;;6.65;71.16;94323.00;4173132;28;20554;-71
2020/12/25 05:57:13;;;;;;;20.75;13.88;;;;;;;6.68;71.50;94313.13;4184224;28;20048;-68
2020/12/25 05:59:15;;;;;;;19.48;13.68;;;;;;;6.67;70.89;94321.91;4187124;28;20578;-70
2020/12/25 06:01:17;;;;;;;20.77;13.65;;;;;;;6.71;70.96;94327.63;4168226;28;20048;-71
2020/12/25 06:03:18;;;;;;;20.83;14.45;;;;;;;6.76;70.81;94328.03;4162393;28;20049;-68
2020/12/25 06:05:22;;;;;;;20.95;14.27;;;;;;;6.84;70.49;94341.13;4181591;28;20131;-70
2020/12/25 06:07:28;;;;;;;19.20;13.15;;;;;;;6.89;70.58;94331.09;4161964;28;20049;-70
2020/12/25 06:09:31;;;;;;;19.42;12.93;;;;;;;6.91;70.29;94339.59;4173928;28;20171;-71
2020/12/25 06:11:33;;;;;;;21.95;13.40;;;;;;;6.84;70.44;94341.13;4160187;28;20049;-71
2020/12/25 06:13:41;;;;;;;25.33;14.02;;;;;;;6.90;70.52;94355.34;4196558;28;20064;-68
2020/12/25 06:15:49;;;;;;;21.88;13.40;;;;;;;6.92;69.93;94338.59;4197806;28;20127;-70
2020/12/25 06:18:11;;;;;;;23.20;13.50;;;;;;;6.96;70.58;94350.38;4175076;28;20052;-69
2020/12/25 06:20:13;;;;;;;21.77;13.63;;;;;;;6.98;70.00;94350.22;4178272;28;20047;-69
2020/12/25 06:22:30;;;;;;;22.38;13.35;;;;;;;7.04;69.62;94356.66;4179250;28;20048;-69
2020/12/25 06:24:37;;;;;;;21.60;13.48;;;;;;;7.05;69.98;94353.88;4184530;28;20049;-68
2020/12/25 06:26:40;;;;;;;21.00;14.50;;;;;;;7.03;69.76;94363.63;4190108;28;20199;-70
2020/12/25 06:28:42;;;;;;;20.23;14.25;;;;;;;7.04;69.85;94356.66;4190903;28;20084;-69
2020/12/25 06:30:43;;;;;;;22.25;13.45;;;;;;;7.07;69.73;94370.19;4190969;28;20049;-68
2020/12/25 06:32:48;;;;;;;21.35;14.40;;;;;;;7.09;69.53;94367.44;4190583;28;20478;-69
2020/12/25 06:34:51;;;;;;;23.90;15.02;;;;;;;7.05;70.07;94374.72;4190688;28;20052;-70
2020/12/25 06:36:52;;;;;;;19.50;14.52;;;;;;;7.09;69.94;94367.44;4190696;28;20049;-68
2020/12/25 06:38:53;;;;;;;20.90;14.90;;;;;;;7.09;69.87;94375.25;4191383;28;20045;-69
2020/12/25 06:40:56;;;;;;;21.13;14.30;;;;;;;7.09;69.91;94363.06;4191012;28;20052;-69
2020/12/25 06:42:57;;;;;;;21.03;14.20;;;;;;;7.13;69.63;94368.78;4172640;28;20083;-70
2020/12/25 06:45:04;;;;;;;20.45;14.55;;;;;;;7.16;69.69;94376.31;4189943;28;20045;-69
2020/12/25 06:47:06;;;;;;;22.05;14.00;;;;;;;7.22;69.51;94359.28;4192721;28;20121;-69
2020/12/25 06:49:09;;;;;;;19.70;13.07;;;;;;;7.23;69.86;94366.97;4190274;28;20399;-69
2020/12/25 06:51:10;;;;;;;22.80;14.13;;;;;;;7.28;69.53;94369.13;4173165;28;20045;-72
2020/12/25 06:53:37;;;;;;;25.08;13.75;;;;;;;7.30;69.13;94378.44;4190329;28;20048;-70
2020/12/25 06:55:43;;;;;;;19.00;13.45;;;;;;;7.31;69.31;94361.84;4187702;28;20075;-69
2020/12/25 06:57:45;;;;;;;20.92;13.80;;;;;;;7.34;69.60;94360.72;4171905;28;20079;-69
2020/12/25 06:59:47;;;;;;;22.73;13.70;;;;;;;7.33;69.57;94352.06;4190529;28;20071;-70
2020/12/25 07:01:50;;;;;;;23.38;13.73;;;;;;;7.22;69.80;94367.09;4191235;28;20072;-70
2020/12/25 07:03:51;;;;;;;22.05;14.02;;;;;;;7.03;70.06;94366.22;4192542;28;20478;-69
2020/12/25 07:05:54;;;;;;;25.52;14.30;;;;;;;7.02;70.79;94350.78;4159364;28;20523;-71
2020/12/25 07:07:55;;;;;;;20.40;13.82;;;;;;;7.07;70.38;94349.34;4192377;28;20452;-71
2020/12/25 07:10:02;;;;;;;21.88;14.00;;;;;;;7.17;69.99;94347.50;4176180;28;20072;-70
2020/12/25 07:12:05;;;;;;;21.35;14.50;;;;;;;7.27;69.93;94333.59;4175753;28;20359;-69
2020/12/25 07:14:09;;;;;;;23.95;15.07;;;;;;;7.34;69.97;94342.47;4192926;28;20135;-71
2020/12/25 07:16:10;;;;;;;19.80;14.52;;;;;;;7.41;69.73;94353.13;4175557;28;20059;-68
2020/12/25 07:18:11;;;;;;;21.58;14.73;;;;;;;7.48;69.14;94346.34;4193427;28;20573;-72
2020/12/25 07:20:13;;;;;;;20.75;14.93;;;;;;;7.54;69.15;94345.75;4183756;28;20048;-70
2020/12/25 07:22:14;;;;;;;22.25;14.45;;;;;;;7.60;68.95;94342.56;4194112;28;20044;-70
2020/12/25 07:24:15;;;;;;;24.38;14.15;;;;;;;7.66;68.64;94341.97;4194001;28;20139;-71
2020/12/25 07:26:20;;;;;;;22.20;14.65;;;;;;;7.74;68.25;94349.84;4175647;28;20060;-70
2020/12/25 07:28:23;;;;;;;20.77;13.95;;;;;;;7.77;68.64;94352.16;4175133;28;20052;-72
2020/12/25 07:30:24;;;;;;;19.13;13.88;;;;;;;7.80;68.59;94354.44;4158964;28;20048;-69
2020/12/25 07:32:25;;;;;;;20.52;14.07;;;;;;;7.52;68.82;94351.09;4191871;28;20048;-70
2020/12/25 07:34:27;;;;;;;25.98;15.35;;;;;;;7.25;70.13;94372.00;4176182;28;20563;-70
2020/12/25 07:36:29;;;;;;;23.73;16.02;;;;;;;7.08;70.55;94374.44;4193109;28;20074;-70
2020/12/25 07:38:30;;;;;;;21.52;14.63;;;;;;;6.84;72.20;94369.78;4191552;28;20154;-69
2020/12/25 07:40:31;;;;;;;24.45;16.55;;;;;;;6.79;72.19;94376.38;4175676;28;20052;-70
2020/12/25 07:42:32;;;;;;;27.17;15.68;;;;;;;6.89;71.89;94372.75;4199617;28;20070;-70
2020/12/25 07:44:34;;;;;;;24.30;16.05;;;;;;;7.05;71.67;94385.16;4177525;28;20823;-71
2020/12/25 07:46:37;;;;;;;24.65;16.33;;;;;;;7.21;70.42;94374.09;4179674;28;20064;-69
2020/12/25 07:49:00;;;;;;;24.50;14.87;;;;;;;7.38;70.43;94372.50;4187286;28;20474;-70
2020/12/25 07:51:01;;;;;;;23.33;15.73;;;;;;;7.51;69.83;94361.72;4174988;28;20457;-70
2020/12/25 07:53:15;;;;;;;24.17;15.07;;;;;;;7.61;69.84;94366.84;4175489;28;20111;-68
2020/12/25 07:55:18;;;;;;;28.17;17.92;;;;;;;7.37;69.86;94370.84;4173434;28;20053;-68
2020/12/25 07:57:19;;;;;;;28.05;19.25;;;;;;;7.09;70.90;94373.47;4187903;28;20084;-70
2020/12/25 07:59:21;;;;;;;28.25;18.73;;;;;;;7.00;71.39;94373.53;4189059;28;20127;-74
2020/12/25 08:01:24;;;;;;;35.90;21.50;;;;;;;6.90;71.71;94371.78;4194875;28;20079;-69
2020/12/25 08:03:26;;;;;;;33.80;21.27;;;;;;;7.11;71.50;94388.97;4176036;28;20076;-78
2020/12/25 08:05:28;;;;;;;33.10;21.75;;;;;;;7.31;71.25;94361.84;4157226;28;20054;-77
2020/12/25 08:07:29;;;;;;;37.17;21.75;;;;;;;7.46;70.30;94374.34;4158952;28;20073;-79
2020/12/25 08:09:34;;;;;;;34.60;21.25;;;;;;;7.53;69.84;94378.81;4172741;28;20063;-81
2020/12/25 08:11:36;;;;;;;35.17;21.52;;;;;;;7.52;70.60;94376.38;4191569;28;20048;-80
2020/12/25 08:13:38;;;;;;;35.28;20.23;;;;;;;7.68;70.12;94386.97;4175353;28;20254;-77
2020/12/25 08:15:39;;;;;;;32.33;21.05;;;;;;;7.77;69.41;94373.00;4174897;28;20056;-79
2020/12/25 08:17:40;;;;;;;30.75;20.27;;;;;;;7.73;69.32;94370.84;4159588;28;20057;-80
2020/12/25 08:19:46;;;;;;;33.08;19.88;;;;;;;7.75;69.33;94389.78;4174428;28;20057;-81
2020/12/25 08:21:47;;;;;;;32.65;18.55;;;;;;;7.79;69.51;94380.69;4186795;28;20052;-83
2020/12/25 08:23:49;;;;;;;31.83;20.63;;;;;;;7.90;69.22;94369.22;4195989;28;20139;-82
2020/12/25 08:25:55;;;;;;;33.08;20.42;;;;;;;7.80;68.81;94377.09;4193606;28;20045;-70
2020/12/25 08:27:57;;;;;;;32.85;19.00;;;;;;;7.86;69.03;94388.75;4190903;28;20415;-72
2020/12/25 08:30:01;;;;;;;29.15;19.65;;;;;;;7.90;69.02;94366.59;4172954;28;20107;-73
2020/12/25 08:32:06;;;;;;;32.58;21.27;;;;;;;7.92;68.78;94369.88;4177263;28;20048;-80
2020/12/25 08:34:15;;;;;;;28.50;20.38;;;;;;;8.00;68.70;94377.75;4193672;28;20053;-79
2020/12/25 08:36:16;;;;;;;29.13;20.05;;;;;;;7.95;68.99;94359.13;4194162;28;20114;-79
2020/12/25 08:38:18;;;;;;;31.30;19.15;;;;;;;8.08;68.12;94361.34;4192376;28;20071;-79
2020/12/25 08:40:19;;;;;;;29.50;19.65;;;;;;;8.13;67.84;94380.81;4192275;28;20044;-81
2020/12/25 08:42:21;;;;;;;36.72;20.95;;;;;;;7.97;67.96;94365.03;4193532;28;20052;-77
2020/12/25 08:44:22;;;;;;;39.47;22.20;;;;;;;7.57;69.92;94372.34;4192773;28;20138;-80
2020/12/25 08:46:24;;;;;;;31.58;21.02;;;;;;;7.75;69.60;94381.97;4193681;28;20056;-77
2020/12/25 08:48:26;;;;;;;32.42;20.02;;;;;;;7.96;68.75;94366.00;4174830;28;20053;-78
2020/12/25 08:50:27;;;;;;;30.92;20.58;;;;;;;8.09;68.72;94376.06;4172120;28;20152;-77
2020/12/25 08:52:29;;;;;;;33.90;19.30;;;;;;;8.19;67.91;94367.16;4196495;28;20058;-82
2020/12/25 08:54:30;;;;;;;32.35;19.23;;;;;;;8.33;67.20;94368.38;4193174;28;20116;-80
2020/12/25 08:56:34;;;;;;;25.70;18.08;;;;;;;8.43;67.48;94365.69;4175748;28;20051;-81
2020/12/25 08:58:36;;;;;;;30.98;19.65;;;;;;;8.54;67.01;94368.06;4187584;28;20427;-77
2020/12/25 09:00:37;;;;;;;30.05;18.55;;;;;;;8.62;66.96;94377.72;4191728;28;20131;-81
2020/12/25 09:02:39;;;;;;;25.13;18.60;;;;;;;8.70;66.24;94348.22;4192547;28;20053;-80
2020/12/25 09:04:40;;;;;;;25.02;18.42;;;;;;;8.65;66.80;94319.97;4192990;28;20052;-77
2020/12/25 09:06:42;;;;;;;28.55;17.98;;;;;;;8.23;67.43;94335.53;4197997;28;20063;-80
2020/12/25 09:09:01;;;;;;;27.60;17.20;;;;;;;8.28;67.70;94338.47;4191812;28;20048;-83
2020/12/25 09:11:07;;;;;;;23.73;15.15;;;;;;;8.10;67.18;94318.47;4176666;28;20044;-77
2020/12/25 09:13:09;;;;;;;24.58;16.42;;;;;;;8.21;67.56;94339.09;4184013;28;20090;-78
2020/12/25 09:15:10;;;;;;;25.35;15.65;;;;;;;8.30;67.06;94326.94;4195384;28;20049;-79
2020/12/25 09:17:13;;;;;;;25.52;14.60;;;;;;;7.89;68.13;94304.97;4191628;28;20056;-79
2020/12/25 09:19:14;;;;;;;20.00;14.07;;;;;;;8.14;67.24;94334.66;4199315;28;20043;-80
2020/12/25 09:21:16;;;;;;;18.77;13.95;;;;;;;8.37;67.06;94335.78;4198416;28;20440;-78
2020/12/25 09:23:17;;;;;;;19.77;14.27;;;;;;;8.52;66.91;94322.19;4174243;28;20049;-78
2020/12/25 09:25:18;;;;;;;21.23;14.50;;;;;;;8.68;66.55;94313.63;4175855;28;20396;-80
2020/12/25 09:27:19;;;;;;;20.00;13.63;;;;;;;8.85;65.58;94317.09;4173272;28;20446;-78
2020/12/25 09:29:20;;;;;;;24.08;13.25;;;;;;;8.99;64.95;94295.59;4192275;28;20458;-79